sensor_id;sensor_type;location;lat;lon;timestamp;P1;durP1;ratioP1;P2;durP2;ratioP2
62947;SDS011;51940;52.126;-0.994;2022-07-30T00:02:14;4.70;;;2.20;;
62947;SDS011;51940;52.126;-0.994;2022-07-30T00:04:40;4.60;;;1.90;;
62947;SDS011;51940;52.126;-0.994;2022-07-30T00:07:06;6.60;;;2.40;;
62947;SDS011;51940;52.126;-0.994;2022-07-30T00:09:32;3.50;;;1.90;;
62947;SDS011;51940;52.126;-0.994;2022-07-30T00:11:58;5.10;;;2.10;;
62947;SDS011;51940;52.126;-0.994;2022-07-30T00:14:24;3.00;;;2.30;;
62947;SDS011;51940;52.126;-0.994;2022-07-30T00:16:50;3.70;;;2.20;;
62947;SDS011;51940;52.126;-0.994;2022-07-30T00:19:16;4.50;;;2.30;;
62947;SDS011;51940;52.126;-0.994;2022-07-30T00:21:41;5.30;;;2.40;;
62947;SDS011;51940;52.126;-0.994;2022-07-30T00:24:07;8.60;;;2.50;;
62947;SDS011;51940;52.126;-0.994;2022-07-30T00:26:33;4.70;;;2.30;;
62947;SDS011;51940;52.126;-0.994;2022-07-30T00:28:58;4.20;;;2.20;;
62947;SDS011;51940;52.126;-0.994;2022-07-30T00:31:24;6.00;;;2.60;;
62947;SDS011;51940;52.126;-0.994;2022-07-30T00:33:49;4.80;;;2.30;;
62947;SDS011;51940;52.126;-0.994;2022-07-30T00:36:15;6.20;;;2.10;;
62947;SDS011;51940;52.126;-0.994;2022-07-30T00:38:40;3.50;;;2.20;;
62947;SDS011;51940;52.126;-0.994;2022-07-30T00:41:06;3.70;;;2.10;;
62947;SDS011;51940;52.126;-0.994;2022-07-30T00:43:31;3.60;;;2.50;;
62947;SDS011;51940;52.126;-0.994;2022-07-30T00:45:57;5.30;;;2.00;;
62947;SDS011;51940;52.126;-0.994;2022-07-30T00:48:22;4.00;;;2.30;;
62947;SDS011;51940;52.126;-0.994;2022-07-30T00:50:48;2.60;;;2.00;;
62947;SDS011;51940;52.126;-0.994;2022-07-30T00:53:13;5.90;;;2.10;;
62947;SDS011;51940;52.126;-0.994;2022-07-30T00:55:39;4.80;;;2.30;;
62947;SDS011;51940;52.126;-0.994;2022-07-30T00:58:04;6.30;;;2.20;;
62947;SDS011;51940;52.126;-0.994;2022-07-30T01:00:30;4.20;;;2.20;;
62947;SDS011;51940;52.126;-0.994;2022-07-30T01:02:56;3.30;;;2.10;;
62947;SDS011;51940;52.126;-0.994;2022-07-30T01:05:21;4.10;;;2.30;;
62947;SDS011;51940;52.126;-0.994;2022-07-30T01:07:47;4.40;;;2.50;;
62947;SDS011;51940;52.126;-0.994;2022-07-30T01:10:13;6.50;;;2.80;;
62947;SDS011;51940;52.126;-0.994;2022-07-30T01:12:39;5.30;;;2.70;;
62947;SDS011;51940;52.126;-0.994;2022-07-30T01:15:07;4.20;;;2.20;;
62947;SDS011;51940;52.126;-0.994;2022-07-30T01:17:35;4.40;;;2.30;;
62947;SDS011;51940;52.126;-0.994;2022-07-30T01:20:02;7.20;;;2.40;;
62947;SDS011;51940;52.126;-0.994;2022-07-30T01:22:49;5.40;;;2.50;;
62947;SDS011;51940;52.126;-0.994;2022-07-30T01:28:03;4.90;;;2.50;;
62947;SDS011;51940;52.126;-0.994;2022-07-30T01:30:35;3.40;;;2.10;;
62947;SDS011;51940;52.126;-0.994;2022-07-30T01:33:03;6.00;;;2.50;;
62947;SDS011;51940;52.126;-0.994;2022-07-30T01:35:31;4.40;;;2.50;;
62947;SDS011;51940;52.126;-0.994;2022-07-30T01:37:58;5.80;;;2.30;;
62947;SDS011;51940;52.126;-0.994;2022-07-30T01:40:27;6.00;;;2.60;;
62947;SDS011;51940;52.126;-0.994;2022-07-30T01:42:54;5.40;;;2.60;;
62947;SDS011;51940;52.126;-0.994;2022-07-30T01:45:22;4.50;;;2.80;;
62947;SDS011;51940;52.126;-0.994;2022-07-30T01:47:52;4.10;;;2.80;;
62947;SDS011;51940;52.126;-0.994;2022-07-30T01:50:20;6.10;;;2.70;;
62947;SDS011;51940;52.126;-0.994;2022-07-30T01:52:47;4.70;;;3.00;;
62947;SDS011;51940;52.126;-0.994;2022-07-30T01:55:17;6.00;;;2.80;;
62947;SDS011;51940;52.126;-0.994;2022-07-30T01:57:49;3.40;;;2.20;;
62947;SDS011;51940;52.126;-0.994;2022-07-30T02:00:16;4.40;;;2.70;;
62947;SDS011;51940;52.126;-0.994;2022-07-30T02:02:42;7.40;;;2.80;;
62947;SDS011;51940;52.126;-0.994;2022-07-30T02:05:09;5.00;;;2.80;;
62947;SDS011;51940;52.126;-0.994;2022-07-30T02:10:40;5.50;;;2.80;;
62947;SDS011;51940;52.126;-0.994;2022-07-30T02:13:09;3.90;;;2.40;;
62947;SDS011;51940;52.126;-0.994;2022-07-30T02:15:42;4.40;;;2.50;;
62947;SDS011;51940;52.126;-0.994;2022-07-30T02:20:49;6.10;;;2.50;;
62947;SDS011;51940;52.126;-0.994;2022-07-30T02:23:18;5.30;;;2.50;;
62947;SDS011;51940;52.126;-0.994;2022-07-30T02:25:49;4.30;;;2.60;;
62947;SDS011;51940;52.126;-0.994;2022-07-30T02:28:16;4.10;;;2.40;;
62947;SDS011;51940;52.126;-0.994;2022-07-30T02:30:46;3.50;;;2.50;;
62947;SDS011;51940;52.126;-0.994;2022-07-30T02:33:15;3.20;;;2.40;;
62947;SDS011;51940;52.126;-0.994;2022-07-30T02:35:43;7.50;;;2.60;;
62947;SDS011;51940;52.126;-0.994;2022-07-30T02:38:09;4.20;;;2.80;;
62947;SDS011;51940;52.126;-0.994;2022-07-30T02:40:40;3.00;;;2.40;;
62947;SDS011;51940;52.126;-0.994;2022-07-30T02:43:07;6.50;;;2.80;;
62947;SDS011;51940;52.126;-0.994;2022-07-30T02:45:34;3.80;;;2.80;;
62947;SDS011;51940;52.126;-0.994;2022-07-30T02:48:02;5.90;;;2.80;;
62947;SDS011;51940;52.126;-0.994;2022-07-30T02:50:31;3.00;;;2.50;;
62947;SDS011;51940;52.126;-0.994;2022-07-30T02:52:58;4.70;;;2.70;;
62947;SDS011;51940;52.126;-0.994;2022-07-30T02:55:26;3.30;;;2.40;;
62947;SDS011;51940;52.126;-0.994;2022-07-30T02:57:54;4.20;;;3.00;;
62947;SDS011;51940;52.126;-0.994;2022-07-30T03:00:22;5.50;;;2.80;;
62947;SDS011;51940;52.126;-0.994;2022-07-30T03:02:51;5.80;;;2.80;;
62947;SDS011;51940;52.126;-0.994;2022-07-30T03:05:18;4.40;;;2.70;;
62947;SDS011;51940;52.126;-0.994;2022-07-30T03:07:45;4.60;;;2.90;;
62947;SDS011;51940;52.126;-0.994;2022-07-30T03:10:11;5.40;;;2.40;;
62947;SDS011;51940;52.126;-0.994;2022-07-30T03:12:39;5.70;;;3.10;;
62947;SDS011;51940;52.126;-0.994;2022-07-30T03:15:08;5.10;;;2.70;;
62947;SDS011;51940;52.126;-0.994;2022-07-30T03:17:37;4.40;;;2.80;;
62947;SDS011;51940;52.126;-0.994;2022-07-30T03:20:06;5.70;;;2.70;;
62947;SDS011;51940;52.126;-0.994;2022-07-30T03:22:35;4.80;;;2.60;;
62947;SDS011;51940;52.126;-0.994;2022-07-30T03:25:07;5.10;;;2.60;;
62947;SDS011;51940;52.126;-0.994;2022-07-30T03:27:35;5.30;;;2.70;;
62947;SDS011;51940;52.126;-0.994;2022-07-30T03:30:03;4.00;;;2.80;;
62947;SDS011;51940;52.126;-0.994;2022-07-30T03:32:29;4.30;;;2.80;;
62947;SDS011;51940;52.126;-0.994;2022-07-30T03:34:56;4.10;;;2.30;;
62947;SDS011;51940;52.126;-0.994;2022-07-30T03:37:24;5.40;;;2.50;;
62947;SDS011;51940;52.126;-0.994;2022-07-30T03:39:51;4.80;;;2.40;;
62947;SDS011;51940;52.126;-0.994;2022-07-30T03:42:19;4.30;;;2.60;;
62947;SDS011;51940;52.126;-0.994;2022-07-30T03:47:24;4.00;;;2.30;;
62947;SDS011;51940;52.126;-0.994;2022-07-30T03:49:51;5.80;;;2.70;;
62947;SDS011;51940;52.126;-0.994;2022-07-30T03:52:18;5.50;;;2.60;;
62947;SDS011;51940;52.126;-0.994;2022-07-30T03:54:46;2.80;;;2.20;;
62947;SDS011;51940;52.126;-0.994;2022-07-30T03:57:12;4.20;;;2.40;;
62947;SDS011;51940;52.126;-0.994;2022-07-30T03:59:38;2.90;;;2.60;;
62947;SDS011;51940;52.126;-0.994;2022-07-30T04:02:04;4.90;;;2.30;;
62947;SDS011;51940;52.126;-0.994;2022-07-30T04:04:30;3.10;;;2.40;;
62947;SDS011;51940;52.126;-0.994;2022-07-30T04:06:56;4.00;;;2.50;;
62947;SDS011;51940;52.126;-0.994;2022-07-30T04:09:22;5.30;;;2.50;;
62947;SDS011;51940;52.126;-0.994;2022-07-30T04:11:48;5.80;;;2.50;;
62947;SDS011;51940;52.126;-0.994;2022-07-30T04:14:14;4.40;;;2.70;;
62947;SDS011;51940;52.126;-0.994;2022-07-30T04:16:48;5.70;;;3.00;;
62947;SDS011;51940;52.126;-0.994;2022-07-30T04:19:20;3.70;;;2.50;;
62947;SDS011;51940;52.126;-0.994;2022-07-30T04:21:49;6.00;;;2.70;;
62947;SDS011;51940;52.126;-0.994;2022-07-30T04:24:18;6.30;;;2.80;;
62947;SDS011;51940;52.126;-0.994;2022-07-30T04:26:44;6.60;;;2.90;;
62947;SDS011;51940;52.126;-0.994;2022-07-30T04:29:11;5.90;;;2.80;;
62947;SDS011;51940;52.126;-0.994;2022-07-30T04:31:37;5.60;;;2.60;;
62947;SDS011;51940;52.126;-0.994;2022-07-30T04:34:04;7.00;;;3.10;;
62947;SDS011;51940;52.126;-0.994;2022-07-30T04:36:30;3.40;;;3.10;;
62947;SDS011;51940;52.126;-0.994;2022-07-30T04:38:57;4.10;;;3.20;;
62947;SDS011;51940;52.126;-0.994;2022-07-30T04:41:23;6.40;;;3.20;;
62947;SDS011;51940;52.126;-0.994;2022-07-30T04:43:49;4.90;;;2.90;;
62947;SDS011;51940;52.126;-0.994;2022-07-30T04:46:15;3.30;;;3.00;;
62947;SDS011;51940;52.126;-0.994;2022-07-30T04:48:41;5.60;;;3.20;;
62947;SDS011;51940;52.126;-0.994;2022-07-30T04:51:09;7.10;;;3.60;;
62947;SDS011;51940;52.126;-0.994;2022-07-30T04:53:38;5.80;;;3.70;;
62947;SDS011;51940;52.126;-0.994;2022-07-30T04:56:05;5.10;;;3.90;;
62947;SDS011;51940;52.126;-0.994;2022-07-30T04:58:32;4.40;;;3.40;;
62947;SDS011;51940;52.126;-0.994;2022-07-30T05:00:59;5.10;;;3.70;;
62947;SDS011;51940;52.126;-0.994;2022-07-30T05:03:26;5.60;;;3.40;;
62947;SDS011;51940;52.126;-0.994;2022-07-30T05:05:54;6.10;;;3.40;;
62947;SDS011;51940;52.126;-0.994;2022-07-30T05:08:22;4.80;;;3.70;;
62947;SDS011;51940;52.126;-0.994;2022-07-30T05:10:48;6.00;;;3.90;;
62947;SDS011;51940;52.126;-0.994;2022-07-30T05:13:14;4.90;;;4.00;;
62947;SDS011;51940;52.126;-0.994;2022-07-30T05:15:40;6.00;;;3.70;;
62947;SDS011;51940;52.126;-0.994;2022-07-30T05:18:09;4.40;;;3.80;;
62947;SDS011;51940;52.126;-0.994;2022-07-30T05:20:35;5.90;;;3.70;;
62947;SDS011;51940;52.126;-0.994;2022-07-30T05:23:01;7.30;;;3.80;;
62947;SDS011;51940;52.126;-0.994;2022-07-30T05:25:27;4.50;;;3.50;;
62947;SDS011;51940;52.126;-0.994;2022-07-30T05:27:52;8.00;;;3.70;;
62947;SDS011;51940;52.126;-0.994;2022-07-30T05:30:20;4.20;;;3.80;;
62947;SDS011;51940;52.126;-0.994;2022-07-30T05:32:46;5.80;;;3.90;;
62947;SDS011;51940;52.126;-0.994;2022-07-30T05:35:12;4.10;;;3.30;;
62947;SDS011;51940;52.126;-0.994;2022-07-30T05:37:37;6.30;;;3.40;;
62947;SDS011;51940;52.126;-0.994;2022-07-30T05:40:03;4.50;;;3.10;;
62947;SDS011;51940;52.126;-0.994;2022-07-30T05:42:29;6.00;;;3.40;;
62947;SDS011;51940;52.126;-0.994;2022-07-30T05:44:54;5.80;;;3.40;;
62947;SDS011;51940;52.126;-0.994;2022-07-30T05:47:20;4.50;;;3.10;;
62947;SDS011;51940;52.126;-0.994;2022-07-30T05:49:45;5.10;;;3.20;;
62947;SDS011;51940;52.126;-0.994;2022-07-30T05:52:11;4.40;;;2.90;;
62947;SDS011;51940;52.126;-0.994;2022-07-30T05:54:37;4.70;;;3.30;;
62947;SDS011;51940;52.126;-0.994;2022-07-30T05:57:02;4.30;;;3.10;;
62947;SDS011;51940;52.126;-0.994;2022-07-30T05:59:28;3.40;;;2.90;;
62947;SDS011;51940;52.126;-0.994;2022-07-30T06:01:54;3.50;;;2.70;;
62947;SDS011;51940;52.126;-0.994;2022-07-30T06:04:19;5.30;;;2.80;;
62947;SDS011;51940;52.126;-0.994;2022-07-30T06:06:45;4.10;;;2.60;;
62947;SDS011;51940;52.126;-0.994;2022-07-30T06:09:10;3.70;;;2.40;;
62947;SDS011;51940;52.126;-0.994;2022-07-30T06:11:36;4.20;;;2.60;;
62947;SDS011;51940;52.126;-0.994;2022-07-30T06:14:01;5.60;;;2.50;;
62947;SDS011;51940;52.126;-0.994;2022-07-30T06:16:27;3.60;;;2.40;;
62947;SDS011;51940;52.126;-0.994;2022-07-30T06:18:52;3.00;;;2.40;;
62947;SDS011;51940;52.126;-0.994;2022-07-30T06:21:18;4.60;;;2.50;;
62947;SDS011;51940;52.126;-0.994;2022-07-30T06:23:43;3.60;;;2.40;;
62947;SDS011;51940;52.126;-0.994;2022-07-30T06:26:09;3.20;;;2.10;;
62947;SDS011;51940;52.126;-0.994;2022-07-30T06:28:35;3.30;;;2.20;;
62947;SDS011;51940;52.126;-0.994;2022-07-30T06:31:00;3.60;;;2.30;;
62947;SDS011;51940;52.126;-0.994;2022-07-30T06:33:26;3.50;;;2.50;;
62947;SDS011;51940;52.126;-0.994;2022-07-30T06:35:52;4.60;;;2.60;;
62947;SDS011;51940;52.126;-0.994;2022-07-30T06:38:17;4.80;;;2.20;;
62947;SDS011;51940;52.126;-0.994;2022-07-30T06:40:42;5.20;;;2.40;;
62947;SDS011;51940;52.126;-0.994;2022-07-30T06:43:08;4.00;;;2.00;;
62947;SDS011;51940;52.126;-0.994;2022-07-30T06:45:33;3.60;;;2.60;;
62947;SDS011;51940;52.126;-0.994;2022-07-30T06:48:00;3.20;;;2.10;;
62947;SDS011;51940;52.126;-0.994;2022-07-30T06:50:25;3.70;;;2.20;;
62947;SDS011;51940;52.126;-0.994;2022-07-30T06:52:52;3.30;;;2.50;;
62947;SDS011;51940;52.126;-0.994;2022-07-30T06:55:18;4.20;;;2.30;;
62947;SDS011;51940;52.126;-0.994;2022-07-30T06:57:43;5.30;;;2.30;;
62947;SDS011;51940;52.126;-0.994;2022-07-30T07:00:09;2.80;;;2.00;;
62947;SDS011;51940;52.126;-0.994;2022-07-30T07:02:37;3.60;;;2.20;;
62947;SDS011;51940;52.126;-0.994;2022-07-30T07:05:04;5.50;;;2.30;;
62947;SDS011;51940;52.126;-0.994;2022-07-30T07:07:31;3.60;;;2.00;;
62947;SDS011;51940;52.126;-0.994;2022-07-30T07:09:59;4.20;;;2.20;;
62947;SDS011;51940;52.126;-0.994;2022-07-30T07:12:24;4.00;;;2.10;;
62947;SDS011;51940;52.126;-0.994;2022-07-30T07:14:50;2.30;;;2.00;;
62947;SDS011;51940;52.126;-0.994;2022-07-30T07:17:20;4.80;;;2.30;;
62947;SDS011;51940;52.126;-0.994;2022-07-30T07:19:46;6.60;;;2.20;;
62947;SDS011;51940;52.126;-0.994;2022-07-30T07:22:11;3.90;;;2.20;;
62947;SDS011;51940;52.126;-0.994;2022-07-30T07:24:37;5.00;;;2.10;;
62947;SDS011;51940;52.126;-0.994;2022-07-30T07:27:02;4.50;;;2.10;;
62947;SDS011;51940;52.126;-0.994;2022-07-30T07:29:28;4.10;;;2.10;;
62947;SDS011;51940;52.126;-0.994;2022-07-30T07:31:53;3.10;;;2.10;;
62947;SDS011;51940;52.126;-0.994;2022-07-30T07:34:19;1.60;;;1.30;;
62947;SDS011;51940;52.126;-0.994;2022-07-30T07:36:44;2.10;;;1.50;;
62947;SDS011;51940;52.126;-0.994;2022-07-30T07:39:10;2.00;;;1.50;;
62947;SDS011;51940;52.126;-0.994;2022-07-30T07:41:36;2.20;;;1.30;;
62947;SDS011;51940;52.126;-0.994;2022-07-30T07:44:02;2.50;;;1.30;;
62947;SDS011;51940;52.126;-0.994;2022-07-30T07:46:30;1.60;;;1.40;;
62947;SDS011;51940;52.126;-0.994;2022-07-30T07:49:08;3.90;;;1.50;;
62947;SDS011;51940;52.126;-0.994;2022-07-30T07:51:33;2.90;;;1.40;;
62947;SDS011;51940;52.126;-0.994;2022-07-30T07:54:00;2.40;;;1.40;;
62947;SDS011;51940;52.126;-0.994;2022-07-30T07:56:28;3.50;;;1.50;;
62947;SDS011;51940;52.126;-0.994;2022-07-30T07:58:54;3.10;;;1.80;;
62947;SDS011;51940;52.126;-0.994;2022-07-30T08:01:21;2.20;;;1.90;;
62947;SDS011;51940;52.126;-0.994;2022-07-30T08:03:50;2.50;;;1.90;;
62947;SDS011;51940;52.126;-0.994;2022-07-30T08:06:16;4.30;;;1.90;;
62947;SDS011;51940;52.126;-0.994;2022-07-30T08:08:41;3.60;;;2.20;;
62947;SDS011;51940;52.126;-0.994;2022-07-30T08:11:07;2.90;;;2.00;;
62947;SDS011;51940;52.126;-0.994;2022-07-30T08:13:33;2.70;;;2.00;;
62947;SDS011;51940;52.126;-0.994;2022-07-30T08:16:00;2.30;;;2.10;;
62947;SDS011;51940;52.126;-0.994;2022-07-30T08:18:26;2.60;;;2.40;;
62947;SDS011;51940;52.126;-0.994;2022-07-30T08:20:52;2.90;;;2.50;;
62947;SDS011;51940;52.126;-0.994;2022-07-30T08:23:18;2.70;;;2.30;;
62947;SDS011;51940;52.126;-0.994;2022-07-30T08:25:46;2.80;;;2.30;;
62947;SDS011;51940;52.126;-0.994;2022-07-30T08:28:11;4.30;;;2.30;;
62947;SDS011;51940;52.126;-0.994;2022-07-30T08:30:37;3.70;;;2.60;;
62947;SDS011;51940;52.126;-0.994;2022-07-30T08:33:02;3.30;;;2.80;;
62947;SDS011;51940;52.126;-0.994;2022-07-30T08:35:28;3.00;;;2.70;;
62947;SDS011;51940;52.126;-0.994;2022-07-30T08:37:53;3.40;;;2.60;;
62947;SDS011;51940;52.126;-0.994;2022-07-30T08:40:19;4.10;;;2.50;;
62947;SDS011;51940;52.126;-0.994;2022-07-30T08:42:45;3.10;;;2.80;;
62947;SDS011;51940;52.126;-0.994;2022-07-30T08:45:12;2.60;;;2.40;;
62947;SDS011;51940;52.126;-0.994;2022-07-30T08:47:39;3.20;;;2.80;;
62947;SDS011;51940;52.126;-0.994;2022-07-30T08:50:06;3.50;;;3.00;;
62947;SDS011;51940;52.126;-0.994;2022-07-30T08:52:34;4.90;;;2.80;;
62947;SDS011;51940;52.126;-0.994;2022-07-30T08:55:01;3.30;;;3.00;;
62947;SDS011;51940;52.126;-0.994;2022-07-30T08:57:30;4.90;;;3.70;;
62947;SDS011;51940;52.126;-0.994;2022-07-30T08:59:57;4.70;;;4.20;;
62947;SDS011;51940;52.126;-0.994;2022-07-30T09:02:23;4.50;;;4.10;;
62947;SDS011;51940;52.126;-0.994;2022-07-30T09:04:49;4.70;;;4.30;;
62947;SDS011;51940;52.126;-0.994;2022-07-30T09:07:14;5.20;;;4.40;;
62947;SDS011;51940;52.126;-0.994;2022-07-30T09:09:40;5.10;;;4.20;;
